Time;durP1;ratioP1;P1;durP2;ratioP2;P2;SDS_P1;SDS_P2;PMS_P1;PMS_P2;Temp;Humidity;BMP_temperature;BMP_pressure;BME280_temperature;BME280_humidity;BME280_pressure;Samples;Min_cycle;Max_cycle;Signal;HPM_P1;HPM_P2
2021/11/07 00:00:38;;;;;;;196.02;33.55;;;;;;;12.78;86.41;97507.81;5093481;28;20048;-66
2021/11/07 00:03:14;;;;;;;315.30;41.25;;;;;;;12.69;86.47;97518.59;5093392;28;20028;-60
2021/11/07 00:10:50;;;;;;;134.73;35.55;;;;;;;12.61;86.88;97511.81;5093467;28;20107;-66
2021/11/07 00:15:42;;;;;;;109.53;34.50;;;;;;;12.59;87.01;97504.91;5093216;28;20016;-65
2021/11/07 00:18:13;;;;;;;120.00;34.67;;;;;;;12.54;87.22;97504.16;5093204;28;20020;-62
2021/11/07 00:20:48;;;;;;;90.75;34.10;;;;;;;12.61;87.12;97511.81;5093373;28;20023;-62
2021/11/07 00:25:51;;;;;;;125.53;36.33;;;;;;;12.48;87.67;97503.47;5093319;28;20016;-64
2021/11/07 00:28:34;;;;;;;79.28;34.38;;;;;;;12.54;87.59;97509.41;5093150;28;20118;-64
2021/11/07 00:31:23;;;;;;;86.18;33.95;;;;;;;12.59;87.39;97497.88;5093128;28;20063;-64
2021/11/07 00:36:35;;;;;;;70.32;34.53;;;;;;;12.58;87.47;97503.19;5093463;28;20390;-63
2021/11/07 00:44:10;;;;;;;84.38;33.72;;;;;;;12.72;86.84;97490.47;5093173;28;20462;-62
2021/11/07 00:46:55;;;;;;;88.17;35.13;;;;;;;12.71;86.69;97494.03;5093033;28;20367;-62
2021/11/07 00:49:47;;;;;;;73.72;34.88;;;;;;;12.70;86.63;97497.53;5093036;28;20489;-63
2021/11/07 00:54:54;;;;;;;78.63;36.60;;;;;;;12.69;86.83;97490.56;5092986;28;20028;-64
2021/11/07 01:00:34;;;;;;;78.35;37.17;;;;;;;12.71;86.48;97487.91;5092713;28;20025;-64
2021/11/07 01:02:40;;;;;;;68.60;35.55;;;;;;;12.71;86.41;97480.03;5091652;28;20035;-66
2021/11/07 01:05:21;;;;;;;80.35;36.40;;;;;;;12.72;86.36;97476.50;5092881;28;20028;-65
2021/11/07 01:07:47;;;;;;;76.35;36.17;;;;;;;12.73;86.35;97478.19;5092886;28;20102;-66
2021/11/07 01:10:13;;;;;;;79.82;35.72;;;;;;;12.80;86.26;97476.25;5092785;28;20104;-64
2021/11/07 01:12:39;;;;;;;72.45;35.58;;;;;;;12.77;85.59;97485.94;5092612;28;20031;-64
2021/11/07 01:15:06;;;;;;;72.90;37.85;;;;;;;12.80;85.78;97479.75;5092752;28;20039;-62
2021/11/07 01:17:32;;;;;;;66.20;34.15;;;;;;;12.81;85.47;97472.72;5092682;28;20027;-61
2021/11/07 01:19:58;;;;;;;65.05;35.58;;;;;;;12.83;85.21;97474.41;5093837;28;20028;-63
2021/11/07 01:23:12;;;;;;;67.30;36.47;;;;;;;12.83;85.40;97466.53;5096513;28;20077;-64
2021/11/07 01:25:12;;;;;;;66.82;36.67;;;;;;;12.81;85.22;97465.69;5093315;28;20040;-60
2021/11/07 01:27:41;;;;;;;67.40;38.35;;;;;;;12.75;85.18;97464.13;5096216;28;20043;-63
2021/11/07 01:30:13;;;;;;;67.85;36.17;;;;;;;12.80;85.00;97463.13;5096289;28;20081;-64
2021/11/07 01:32:43;;;;;;;63.63;35.08;;;;;;;12.74;84.89;97461.56;5096140;28;20028;-63
2021/11/07 01:35:17;;;;;;;58.55;34.72;;;;;;;12.80;84.75;97464.00;5096420;28;20032;-64
2021/11/07 01:40:30;;;;;;;64.88;35.25;;;;;;;12.86;84.60;97450.63;5096414;28;20042;-62
2021/11/07 01:42:57;;;;;;;67.53;36.35;;;;;;;12.83;84.19;97449.91;5095942;28;20535;-60
2021/11/07 01:45:28;;;;;;;70.43;34.67;;;;;;;12.89;84.15;97450.53;5095891;28;20050;-63
2021/11/07 01:48:04;;;;;;;56.35;32.00;;;;;;;12.90;84.08;97451.41;5095972;28;20035;-64
2021/11/07 01:50:34;;;;;;;54.58;33.05;;;;;;;12.95;83.80;97451.25;5095976;28;20039;-61
2021/11/07 01:53:16;;;;;;;63.45;34.38;;;;;;;12.98;83.54;97453.78;5095742;28;20036;-64
2021/11/07 01:55:42;;;;;;;61.35;34.65;;;;;;;13.05;83.54;97460.53;5095883;28;20056;-62
2021/11/07 01:58:08;;;;;;;59.13;32.45;;;;;;;13.05;83.53;97450.03;5095750;28;20473;-63
2021/11/07 02:00:33;;;;;;;50.70;31.55;;;;;;;13.12;83.36;97464.69;5095510;28;20084;-63
2021/11/07 02:02:59;;;;;;;55.33;33.85;;;;;;;13.13;83.28;97458.50;5095697;28;20020;-65
2021/11/07 02:05:25;;;;;;;60.85;33.20;;;;;;;13.17;83.10;97445.28;5095604;28;20095;-65
2021/11/07 02:07:50;;;;;;;58.65;35.08;;;;;;;13.22;82.84;97446.81;5095666;28;20058;-60
2021/11/07 02:10:18;;;;;;;61.72;34.15;;;;;;;13.20;82.58;97453.91;5095493;28;20427;-64
2021/11/07 02:12:46;;;;;;;59.75;33.15;;;;;;;13.22;82.31;97452.09;5095480;28;20038;-61
2021/11/07 02:15:15;;;;;;;70.97;38.75;;;;;;;13.23;82.03;97448.56;5095471;28;20431;-64
2021/11/07 02:17:41;;;;;;;50.70;32.40;;;;;;;13.20;82.26;97439.91;5095372;28;20024;-63
2021/11/07 02:20:10;;;;;;;55.50;31.27;;;;;;;13.25;82.23;97440.63;5095341;28;20031;-60
2021/11/07 02:22:38;;;;;;;57.22;32.53;;;;;;;13.25;82.29;97438.00;5095409;28;20032;-64
2021/11/07 02:25:05;;;;;;;57.53;32.00;;;;;;;13.25;82.12;97438.84;5095424;28;20020;-66
2021/11/07 02:27:31;;;;;;;61.03;32.85;;;;;;;13.26;82.11;97437.09;5095292;28;20028;-65
2021/11/07 02:29:57;;;;;;;60.67;32.75;;;;;;;13.33;82.01;97432.50;5095272;28;20117;-66
2021/11/07 02:32:23;;;;;;;50.50;31.02;;;;;;;13.37;81.55;97436.72;5094092;28;20024;-64
2021/11/07 02:34:49;;;;;;;48.10;29.40;;;;;;;13.38;81.86;97433.16;5095212;28;20481;-63
2021/11/07 02:37:15;;;;;;;45.38;28.90;;;;;;;13.39;81.87;97429.63;5095133;28;20386;-64
2021/11/07 02:39:40;;;;;;;52.00;30.02;;;;;;;13.40;81.54;97434.81;5095117;28;20021;-65
2021/11/07 02:42:07;;;;;;;61.28;33.30;;;;;;;13.37;81.35;97432.31;5094903;28;20028;-63
2021/11/07 02:44:41;;;;;;;59.25;32.30;;;;;;;13.33;81.04;97435.13;5094846;28;20480;-66
2021/11/07 02:47:10;;;;;;;61.38;33.70;;;;;;;13.29;81.44;97434.34;5094879;28;20115;-64
2021/11/07 02:49:37;;;;;;;59.03;34.00;;;;;;;13.24;81.55;97433.63;5094763;28;20365;-65
2021/11/07 02:52:05;;;;;;;59.75;33.20;;;;;;;13.26;81.60;97437.94;5094639;28;20016;-60
2021/11/07 02:54:32;;;;;;;63.72;33.05;;;;;;;13.30;81.53;97432.59;5094599;28;20043;-60
2021/11/07 02:57:01;;;;;;;58.60;33.72;;;;;;;13.33;81.49;97438.59;5094665;28;20026;-61
2021/11/07 02:59:31;;;;;;;58.60;33.53;;;;;;;13.34;81.54;97431.56;5094633;28;20432;-62
2021/11/07 03:01:58;;;;;;;57.38;31.85;;;;;;;13.37;81.38;97434.09;5094535;28;20040;-63
2021/11/07 03:04:25;;;;;;;53.58;30.67;;;;;;;13.39;81.33;97435.75;5094498;28;20032;-62
2021/11/07 03:06:51;;;;;;;51.25;30.70;;;;;;;13.42;81.29;97432.13;5094334;28;20043;-64
2021/11/07 03:09:20;;;;;;;49.80;30.48;;;;;;;13.45;81.13;97436.47;5094388;28;20024;-62
2021/11/07 03:11:46;;;;;;;56.58;32.85;;;;;;;13.43;81.13;97441.75;5094340;28;20055;-65
2021/11/07 03:14:20;;;;;;;59.58;33.80;;;;;;;13.39;80.99;97443.63;5093213;28;20099;-63
2021/11/07 03:16:46;;;;;;;73.50;34.00;;;;;;;13.39;80.83;97441.00;5094401;28;20032;-64
2021/11/07 03:19:12;;;;;;;60.70;34.63;;;;;;;13.31;81.17;97431.69;5094271;28;20024;-63
2021/11/07 03:21:39;;;;;;;73.72;35.75;;;;;;;13.26;81.50;97431.81;5094153;28;20030;-65
2021/11/07 03:24:06;;;;;;;70.25;36.47;;;;;;;13.14;81.78;97438.38;5094256;28;20024;-62
2021/11/07 03:26:34;;;;;;;64.25;35.55;;;;;;;12.97;82.41;97437.16;5094121;28;20107;-66
2021/11/07 03:29:02;;;;;;;63.28;35.55;;;;;;;13.00;82.48;97433.56;5094075;28;20032;-64
2021/11/07 03:34:23;;;;;;;62.45;33.15;;;;;;;12.99;82.82;97434.47;5094366;28;20088;-62
2021/11/07 03:36:51;;;;;;;65.68;34.60;;;;;;;13.06;82.56;97432.53;5093954;28;20038;-63
2021/11/07 03:39:18;;;;;;;61.33;33.20;;;;;;;13.04;82.41;97432.56;5093926;28;20031;-65
2021/11/07 03:41:45;;;;;;;57.42;32.53;;;;;;;12.98;82.48;97441.50;5094007;28;20024;-60
2021/11/07 03:44:12;;;;;;;76.25;33.67;;;;;;;12.84;83.02;97430.59;5093575;28;20477;-62
2021/11/07 03:46:39;;;;;;;69.38;35.17;;;;;;;12.79;83.52;97435.16;5093903;28;20020;-65
2021/11/07 03:49:06;;;;;;;63.15;33.30;;;;;;;12.76;83.75;97431.72;5093835;28;20024;-65
2021/11/07 03:51:33;;;;;;;70.43;35.55;;;;;;;12.66;84.03;97438.16;5093627;28;20024;-60
2021/11/07 03:53:59;;;;;;;71.90;36.65;;;;;;;12.62;84.49;97439.19;5093586;28;20034;-66
2021/11/07 03:56:26;;;;;;;73.90;36.22;;;;;;;12.62;84.48;97434.78;5093580;28;20080;-66
2021/11/07 03:58:53;;;;;;;87.43;36.78;;;;;;;12.64;84.79;97432.09;5093531;28;20047;-63
2021/11/07 04:01:19;;;;;;;76.13;36.65;;;;;;;12.66;84.68;97432.06;5093402;28;20404;-63
2021/11/07 04:03:46;;;;;;;75.30;35.65;;;;;;;12.69;84.36;97431.97;5093533;28;20043;-64
2021/11/07 04:06:12;;;;;;;76.10;33.67;;;;;;;12.76;84.24;97428.22;5093408;28;20019;-61
2021/11/07 04:08:39;;;;;;;77.45;36.13;;;;;;;12.80;84.09;97424.59;5093453;28;20062;-65
2021/11/07 04:11:05;;;;;;;76.45;36.63;;;;;;;12.80;83.79;97424.59;5093341;28;20031;-63
2021/11/07 04:13:31;;;;;;;75.18;36.67;;;;;;;12.82;83.70;97419.31;5093212;28;20412;-62
2021/11/07 04:15:57;;;;;;;72.70;34.47;;;;;;;12.82;83.79;97420.16;5092267;28;20024;-64
2021/11/07 04:18:23;;;;;;;72.82;34.85;;;;;;;12.88;83.68;97430.44;5093288;28;20082;-62
2021/11/07 04:20:49;;;;;;;72.65;36.22;;;;;;;12.91;83.35;97432.09;5093259;28;20386;-63
2021/11/07 04:23:15;;;;;;;68.47;33.90;;;;;;;12.76;84.15;97434.34;5093181;28;20013;-63
2021/11/07 04:25:41;;;;;;;72.55;35.67;;;;;;;12.73;84.35;97430.94;5093155;28;20135;-65
2021/11/07 04:28:07;;;;;;;71.93;34.15;;;;;;;12.74;84.45;97443.19;5093158;28;20028;-63
2021/11/07 04:30:34;;;;;;;74.28;37.63;;;;;;;12.74;84.40;97435.31;5093171;28;20069;-63
2021/11/07 04:33:00;;;;;;;80.45;36.70;;;;;;;12.77;84.29;97438.66;5092979;28;20466;-62
2021/11/07 04:35:26;;;;;;;70.38;36.17;;;;;;;12.80;84.18;97435.13;5093040;28;20024;-66
2021/11/07 04:37:52;;;;;;;71.05;35.60;;;;;;;12.82;84.16;97435.91;5093223;28;20036;-62
2021/11/07 04:40:18;;;;;;;77.55;36.40;;;;;;;12.85;84.09;97430.56;5093208;28;20073;-60
2021/11/07 04:42:44;;;;;;;72.43;36.22;;;;;;;12.92;83.79;97441.72;5093083;28;20447;-64
2021/11/07 04:45:10;;;;;;;82.38;36.33;;;;;;;12.91;83.77;97441.78;5092922;28;20020;-63
2021/11/07 04:47:36;;;;;;;71.57;35.75;;;;;;;12.94;83.68;97446.94;5092974;28;20031;-66
2021/11/07 04:50:03;;;;;;;71.13;36.47;;;;;;;12.94;83.86;97446.94;5093035;28;20020;-62
2021/11/07 04:52:29;;;;;;;73.13;35.72;;;;;;;12.97;83.55;97446.78;5092849;28;20024;-66
2021/11/07 04:54:54;;;;;;;77.88;36.55;;;;;;;13.00;83.59;97451.94;5094272;28;20147;-64
2021/11/07 04:57:20;;;;;;;74.43;35.88;;;;;;;13.01;83.43;97446.66;5096888;28;20074;-63
2021/11/07 04:59:46;;;;;;;70.07;35.20;;;;;;;13.03;83.29;97451.84;5096684;28;20036;-65
2021/11/07 05:02:12;;;;;;;77.40;37.08;;;;;;;13.08;83.15;97439.44;5096971;28;20028;-63
2021/11/07 05:04:37;;;;;;;76.70;36.50;;;;;;;13.05;83.19;97450.03;5096905;28;20024;-64
2021/11/07 05:07:04;;;;;;;74.40;34.78;;;;;;;13.08;83.16;97446.44;5096806;28;20421;-65
2021/11/07 05:09:29;;;;;;;70.00;35.78;;;;;;;13.10;83.02;97442.84;5096751;28;20024;-61
2021/11/07 05:11:55;;;;;;;75.50;37.78;;;;;;;13.10;83.16;97449.91;5096674;28;20359;-60
2021/11/07 05:14:21;;;;;;;88.32;39.45;;;;;;;13.08;83.12;97439.44;5096619;28;20058;-65
2021/11/07 05:16:46;;;;;;;73.70;37.40;;;;;;;13.08;83.33;97436.81;5096679;28;20024;-64
2021/11/07 05:19:12;;;;;;;78.53;35.88;;;;;;;13.12;83.27;97446.28;5096666;28;20016;-63
2021/11/07 05:21:39;;;;;;;77.07;37.80;;;;;;;13.15;83.24;97453.22;5096411;28;20032;-63
2021/11/07 05:24:06;;;;;;;85.28;38.65;;;;;;;13.09;83.31;97443.78;5096442;28;20032;-64
2021/11/07 05:26:33;;;;;;;77.53;38.38;;;;;;;13.13;83.47;97449.78;5096350;28;20032;-62
2021/11/07 05:28:59;;;;;;;79.72;35.60;;;;;;;13.12;83.51;97443.66;5096483;28;20020;-63
2021/11/07 05:31:25;;;;;;;89.30;37.03;;;;;;;13.12;83.46;97448.91;5096465;28;20028;-63
2021/11/07 05:33:51;;;;;;;99.82;39.55;;;;;;;13.18;83.35;97450.47;5096191;28;20478;-62
2021/11/07 05:36:17;;;;;;;74.20;37.13;;;;;;;13.24;83.16;97444.16;5096313;28;20027;-62
2021/11/07 05:38:43;;;;;;;77.78;39.42;;;;;;;13.27;83.03;97452.78;5096191;28;20020;-63
2021/11/07 05:41:09;;;;;;;73.45;40.40;;;;;;;13.28;83.09;97451.03;5096162;28;20042;-62
2021/11/07 05:43:34;;;;;;;73.43;39.60;;;;;;;13.30;82.79;97453.63;5096060;28;20036;-64
2021/11/07 05:46:00;;;;;;;77.97;39.80;;;;;;;13.33;82.64;97450.88;5096122;28;20031;-61
2021/11/07 05:48:25;;;;;;;84.65;43.78;;;;;;;13.32;82.69;97455.28;5095915;28;20441;-65
2021/11/07 05:50:51;;;;;;;96.03;45.33;;;;;;;13.29;82.74;97465.88;5095966;28;20027;-65
2021/11/07 05:53:16;;;;;;;151.35;39.85;;;;;;;13.20;83.18;97458.31;5095868;28;20036;-63
2021/11/07 05:55:42;;;;;;;102.95;39.85;;;;;;;13.19;83.29;97459.22;5095808;28;20029;-61
2021/11/07 05:58:08;;;;;;;68.38;35.50;;;;;;;13.18;83.24;97473.28;5095844;28;20095;-65
2021/11/07 06:00:34;;;;;;;64.07;34.63;;;;;;;13.08;83.19;97473.59;5095388;28;20059;-65
2021/11/07 06:03:06;;;;;;;62.40;33.53;;;;;;;12.96;83.25;97474.84;5095862;28;20024;-62
2021/11/07 06:05:33;;;;;;;49.80;32.55;;;;;;;12.92;83.68;97473.25;5095378;28;20020;-64
2021/11/07 06:07:59;;;;;;;52.50;32.63;;;;;;;12.91;83.55;97478.53;5094902;28;20073;-66
2021/11/07 06:10:24;;;;;;;55.08;34.20;;;;;;;12.95;83.50;97472.28;5095475;28;20027;-63
2021/11/07 06:12:50;;;;;;;49.75;32.80;;;;;;;12.92;83.73;97475.00;5095543;28;20031;-63
2021/11/07 06:15:16;;;;;;;58.72;34.85;;;;;;;12.94;83.30;97476.66;5095386;28;20024;-63
2021/11/07 06:17:41;;;;;;;55.15;32.75;;;;;;;12.96;83.00;97480.09;5095494;28;20122;-64
2021/11/07 06:20:08;;;;;;;49.03;30.88;;;;;;;12.88;82.62;97477.72;5095354;28;20020;-62
2021/11/07 06:22:34;;;;;;;55.70;31.48;;;;;;;12.81;83.08;97477.97;5095332;28;20024;-60
2021/11/07 06:25:00;;;;;;;47.50;29.02;;;;;;;12.66;83.27;97489.81;5094130;28;20085;-62
2021/11/07 06:27:28;;;;;;;47.67;28.55;;;;;;;12.61;83.40;97482.94;5095221;28;20024;-61
2021/11/07 06:29:54;;;;;;;45.20;26.88;;;;;;;12.55;83.65;97484.91;5095311;28;20027;-62
2021/11/07 06:32:19;;;;;;;48.17;26.70;;;;;;;12.42;83.80;97485.28;5095128;28;20020;-64
2021/11/07 06:34:45;;;;;;;45.58;26.77;;;;;;;12.31;84.37;97480.34;5095112;28;20107;-61
2021/11/07 06:37:11;;;;;;;48.15;27.30;;;;;;;12.22;84.57;97478.84;5094993;28;20486;-63
2021/11/07 06:39:37;;;;;;;46.00;25.20;;;;;;;12.12;85.25;97474.78;5095052;28;20028;-64
2021/11/07 06:42:04;;;;;;;53.72;27.33;;;;;;;12.06;85.38;97467.94;5095013;28;20024;-65
2021/11/07 06:44:30;;;;;;;50.00;25.48;;;;;;;12.08;85.69;97463.53;5094958;28;20024;-62
2021/11/07 06:46:57;;;;;;;55.80;25.95;;;;;;;12.11;85.65;97462.59;5094851;28;20032;-63
2021/11/07 06:49:23;;;;;;;48.83;26.55;;;;;;;12.17;86.11;97466.78;5094715;28;20030;-65
2021/11/07 06:51:50;;;;;;;49.67;27.40;;;;;;;12.30;86.05;97465.50;5094734;28;20025;-63
2021/11/07 06:54:15;;;;;;;50.78;26.20;;;;;;;12.44;85.98;97467.72;5094817;28;20036;-62
2021/11/07 06:56:42;;;;;;;40.47;25.38;;;;;;;12.55;85.71;97462.13;5094729;28;20068;-61
2021/11/07 06:59:07;;;;;;;44.47;24.48;;;;;;;12.72;84.91;97468.59;5094604;28;20107;-66
2021/11/07 07:01:34;;;;;;;40.83;24.55;;;;;;;12.80;85.21;97471.88;5094479;28;20086;-62
2021/11/07 07:04:04;;;;;;;37.67;23.02;;;;;;;12.91;84.88;97468.03;5094547;28;20024;-61
2021/11/07 07:06:29;;;;;;;38.38;22.88;;;;;;;13.04;84.18;97460.59;5094604;28;20080;-63
2021/11/07 07:08:59;;;;;;;38.80;23.70;;;;;;;13.14;83.89;97465.50;5094480;28;20020;-63
2021/11/07 07:11:32;;;;;;;37.10;24.52;;;;;;;13.20;83.84;97460.94;5094352;28;20466;-63
2021/11/07 07:14:13;;;;;;;41.03;23.30;;;;;;;13.26;83.75;97463.34;5094373;28;20499;-64
2021/11/07 07:19:50;;;;;;;49.20;27.70;;;;;;;13.27;83.53;97452.78;5094447;28;20043;-61
2021/11/07 07:22:31;;;;;;;50.55;27.95;;;;;;;13.38;83.50;97462.94;5094042;28;20119;-64
2021/11/07 07:35:27;;;;;;;45.53;24.88;;;;;;;13.40;83.51;97447.13;5094079;28;20098;-66
2021/11/07 07:37:55;;;;;;;44.33;25.25;;;;;;;13.48;83.22;97447.69;5093865;28;20028;-64
2021/11/07 07:40:23;;;;;;;38.95;24.70;;;;;;;13.54;83.24;97446.66;5093915;28;20474;-61
2021/11/07 07:42:50;;;;;;;44.28;25.40;;;;;;;13.46;83.02;97444.25;5093829;28;20040;-62
2021/11/07 07:45:16;;;;;;;39.63;25.00;;;;;;;13.33;82.66;97441.22;5093782;28;20031;-62
2021/11/07 07:47:43;;;;;;;43.53;25.95;;;;;;;13.35;82.83;97435.91;5093790;28;20024;-64
2021/11/07 07:50:11;;;;;;;48.42;27.35;;;;;;;13.35;83.01;97435.91;5093722;28;20520;-60
2021/11/07 07:52:38;;;;;;;44.05;25.55;;;;;;;13.35;83.02;97430.66;5093523;28;20111;-61
2021/11/07 07:55:07;;;;;;;48.70;26.60;;;;;;;13.37;83.13;97434.94;5093661;28;20035;-62
2021/11/07 07:57:33;;;;;;;44.63;26.25;;;;;;;13.38;83.26;97435.78;5093750;28;20428;-61
2021/11/07 07:59:58;;;;;;;43.17;25.75;;;;;;;13.36;83.76;97432.34;5093369;28;20069;-64
2021/11/07 08:02:24;;;;;;;44.92;25.73;;;;;;;13.49;82.72;97430.16;5093600;28;20051;-65
2021/11/07 08:04:52;;;;;;;43.05;24.88;;;;;;;13.55;82.21;97427.34;5093473;28;20043;-62
2021/11/07 08:07:18;;;;;;;44.10;25.83;;;;;;;13.67;82.67;97427.81;5093373;28;20035;-63
2021/11/07 08:09:44;;;;;;;43.83;25.65;;;;;;;13.71;82.73;97424.16;5093597;28;20016;-60
2021/11/07 08:12:09;;;;;;;49.22;25.13;;;;;;;13.75;82.38;97429.25;5093371;28;20116;-63
2021/11/07 08:14:35;;;;;;;47.13;28.30;;;;;;;13.75;82.54;97428.38;5093367;28;20359;-62
2021/11/07 08:17:02;;;;;;;42.95;25.63;;;;;;;13.81;81.14;97435.22;5093288;28;20028;-63
2021/11/07 08:19:27;;;;;;;37.85;23.05;;;;;;;13.93;80.33;97433.91;5093326;28;20546;-64
2021/11/07 08:21:55;;;;;;;35.55;23.55;;;;;;;13.99;80.66;97431.88;5093407;28;20048;-63
2021/11/07 08:24:20;;;;;;;41.60;23.83;;;;;;;13.96;80.56;97432.00;5093192;28;20051;-64
2021/11/07 08:26:47;;;;;;;41.58;23.60;;;;;;;13.98;80.75;97431.94;5093317;28;20017;-64
2021/11/07 08:29:16;;;;;;;35.90;23.30;;;;;;;14.05;79.91;97430.78;5092425;28;20469;-65
2021/11/07 08:31:43;;;;;;;37.92;22.17;;;;;;;14.12;80.11;97434.06;5093199;28;20057;-64
2021/11/07 08:34:09;;;;;;;34.63;22.05;;;;;;;14.14;80.09;97437.47;5093151;28;20050;-64
2021/11/07 08:36:45;;;;;;;31.83;20.77;;;;;;;14.27;79.60;97433.44;5093091;28;20478;-64
2021/11/07 08:39:48;;;;;;;39.38;23.95;;;;;;;14.24;79.46;97433.56;5093303;28;20066;-64
2021/11/07 08:42:30;;;;;;;38.08;21.70;;;;;;;14.25;79.37;97429.16;5091737;28;20098;-62
2021/11/07 09:01:32;;;;;;;33.75;21.67;;;;;;;14.14;78.85;97409.41;5092782;28;20051;-64
2021/11/07 09:06:44;;;;;;;32.83;20.75;;;;;;;14.20;78.33;97410.06;5092859;28;20024;-63
2021/11/07 09:09:14;;;;;;;34.65;20.90;;;;;;;14.20;77.82;97402.16;5092895;28;20032;-62
2021/11/07 09:11:51;;;;;;;34.15;21.00;;;;;;;14.28;77.76;97397.47;5092891;28;20035;-61
2021/11/07 09:14:25;;;;;;;35.05;21.65;;;;;;;14.37;78.25;97399.75;5092760;28;20119;-62
2021/11/07 09:16:53;;;;;;;32.08;19.67;;;;;;;14.44;77.28;97392.44;5092713;28;20067;-63
2021/11/07 09:19:22;;;;;;;31.60;21.35;;;;;;;14.27;78.25;97386.09;5092908;28;20027;-63
2021/11/07 09:21:52;;;;;;;32.97;21.73;;;;;;;14.26;78.47;97389.63;5092790;28;20429;-60
2021/11/07 09:24:36;;;;;;;34.95;21.63;;;;;;;14.38;77.68;97384.78;5092763;28;20106;-63
2021/11/07 09:27:08;;;;;;;33.72;22.27;;;;;;;14.37;78.46;97378.69;5092837;28;20115;-64
2021/11/07 09:34:54;;;;;;;31.60;20.00;;;;;;;14.48;76.55;97374.78;5092624;28;20029;-64
2021/11/07 09:40:10;;;;;;;31.35;19.33;;;;;;;14.67;76.28;97353.81;5081283;28;20482;-64
2021/11/07 09:47:48;;;;;;;36.58;20.48;;;;;;;14.61;77.58;97338.25;5096180;28;20032;-65
2021/11/07 09:50:14;;;;;;;26.48;20.58;;;;;;;14.66;77.29;97338.94;5096074;28;20121;-64
2021/11/07 09:52:48;;;;;;;27.48;20.00;;;;;;;14.74;76.94;97339.47;5095821;28;20111;-63
2021/11/07 09:55:17;;;;;;;29.45;19.23;;;;;;;14.83;76.37;97334.72;5095983;28;20107;-62
2021/11/07 09:57:43;;;;;;;29.88;20.92;;;;;;;14.69;76.46;97325.63;5095875;28;20169;-65
2021/11/07 10:00:20;;;;;;;47.85;30.73;;;;;;;14.64;77.49;97331.09;5095704;28;20047;-66
2021/11/07 10:02:47;;;;;;;21.58;16.27;;;;;;;14.54;77.57;97316.56;5095721;28;20054;-63
2021/11/07 10:05:15;;;;;;;16.23;13.23;;;;;;;14.52;76.54;97305.28;5095666;28;20478;-66
2021/11/07 10:07:42;;;;;;;17.00;13.57;;;;;;;14.68;77.02;97294.06;5095600;28;20554;-61
2021/11/07 10:10:24;;;;;;;18.17;13.18;;;;;;;14.82;76.60;97288.25;5095641;28;20115;-66
2021/11/07 10:12:56;;;;;;;17.30;12.65;;;;;;;15.01;77.05;97283.91;5095685;28;20039;-62
2021/11/07 10:15:42;;;;;;;16.45;12.02;;;;;;;15.15;75.17;97285.06;5095591;28;20024;-65
2021/11/07 10:18:13;;;;;;;15.20;11.18;;;;;;;15.24;75.48;97284.66;5095571;28;20040;-63
2021/11/07 10:20:45;;;;;;;16.10;11.27;;;;;;;15.36;75.49;97277.97;5095603;28;20025;-62
2021/11/07 10:23:30;;;;;;;15.30;11.65;;;;;;;15.27;74.19;97271.31;5095458;28;20491;-62
2021/11/07 10:26:23;;;;;;;13.63;10.55;;;;;;;15.40;74.08;97266.38;5095381;28;20061;-62
2021/11/07 10:28:57;;;;;;;15.25;11.30;;;;;;;15.41;74.29;97254.88;5095303;28;20024;-63
2021/11/07 10:31:33;;;;;;;18.48;10.98;;;;;;;15.46;74.10;97251.16;5095250;28;20032;-64
2021/11/07 10:34:28;;;;;;;14.50;11.48;;;;;;;15.56;73.55;97251.63;5095163;28;20070;-62
2021/11/07 10:42:40;;;;;;;13.15;10.07;;;;;;;15.81;71.93;97229.34;5095063;28;20020;-64
2021/11/07 10:53:28;;;;;;;17.02;12.38;;;;;;;16.19;71.11;97202.88;5094105;28;20128;-61
2021/11/07 10:56:01;;;;;;;14.23;12.00;;;;;;;16.27;70.62;97203.34;5094788;28;20039;-63
2021/11/07 10:58:32;;;;;;;21.98;12.73;;;;;;;16.24;70.38;97197.34;5094726;28;20035;-62
2021/11/07 11:01:00;;;;;;;;;;;;;;;16.26;70.23;97198.97;5095069;28;20048;-64
2021/11/07 11:03:26;;;;;;;18.33;11.48;;;;;;;16.39;70.78;97187.81;5094712;28;19938;-60
2021/11/07 11:06:16;;;;;;;17.80;10.82;;;;;;;16.49;69.24;97182.91;5094520;28;20050;-60
2021/11/07 11:09:01;;;;;;;14.63;10.63;;;;;;;16.53;70.52;97176.53;5093811;28;20123;-63
2021/11/07 11:11:36;;;;;;;13.88;10.90;;;;;;;16.46;69.82;97183.09;5094484;28;20038;-64
2021/11/07 11:14:10;;;;;;;17.35;11.50;;;;;;;16.44;70.19;97182.28;5094348;28;20036;-62
2021/11/07 11:16:51;;;;;;;19.10;11.15;;;;;;;16.44;70.64;97166.44;5092140;28;20032;-62
2021/11/07 11:22:20;;;;;;;10.98;9.55;;;;;;;16.35;70.03;97158.09;5094370;28;20380;-65
2021/11/07 11:24:56;;;;;;;11.65;9.57;;;;;;;16.45;70.51;97165.50;5093928;28;20076;-62
2021/11/07 11:30:04;;;;;;;13.70;9.77;;;;;;;16.58;69.34;97157.81;5086692;28;20031;-65
2021/11/07 11:35:27;;;;;;;14.23;10.38;;;;;;;16.74;68.95;97150.75;5094128;28;20020;-61
2021/11/07 11:40:30;;;;;;;20.85;10.95;;;;;;;16.85;68.67;97137.00;5093934;28;20486;-60
2021/11/07 11:43:01;;;;;;;11.55;10.30;;;;;;;16.84;68.21;97134.44;5093601;28;20488;-61
2021/11/07 11:45:36;;;;;;;12.82;10.25;;;;;;;16.98;68.03;97131.88;5091760;28;20393;-60
2021/11/07 11:48:57;;;;;;;12.18;9.85;;;;;;;17.02;67.99;97132.56;5093909;28;20104;-61
2021/11/07 11:51:37;;;;;;;14.70;10.85;;;;;;;17.14;67.95;97131.94;5093324;28;20036;-61
2021/11/07 11:57:28;;;;;;;13.90;10.68;;;;;;;17.19;67.46;97123.75;5094052;28;20070;-61
2021/11/07 12:00:18;;;;;;;17.90;9.85;;;;;;;17.32;67.41;97104.53;5093452;28;20090;-60
2021/11/07 12:02:52;;;;;;;15.85;10.65;;;;;;;17.41;66.86;97104.91;5093132;28;20055;-61
2021/11/07 12:08:58;;;;;;;15.70;10.60;;;;;;;17.32;66.76;97099.25;5093779;28;20069;-61
2021/11/07 12:11:42;;;;;;;13.75;10.90;;;;;;;17.37;66.82;97092.75;5087085;28;20040;-61
2021/11/07 12:16:59;;;;;;;16.40;11.02;;;;;;;17.39;65.87;97082.97;5073278;28;20095;-61
2021/11/07 12:19:41;;;;;;;16.85;10.73;;;;;;;17.39;66.75;97074.16;5073163;28;20028;-61
2021/11/07 12:22:35;;;;;;;16.95;10.63;;;;;;;17.36;66.20;97072.56;5082276;28;20120;-60
2021/11/07 12:25:10;;;;;;;17.58;11.70;;;;;;;17.17;66.72;97081.56;5092851;28;20032;-60
2021/11/07 12:27:52;;;;;;;14.27;11.05;;;;;;;17.21;66.86;97078.72;5093333;28;20048;-61
2021/11/07 12:30:25;;;;;;;12.85;10.38;;;;;;;17.27;66.32;97076.59;5093101;28;20021;-60
2021/11/07 12:33:08;;;;;;;15.18;10.57;;;;;;;17.35;66.76;97075.28;5093076;28;20040;-61
2021/11/07 12:41:11;;;;;;;16.85;11.73;;;;;;;17.40;66.79;97052.09;5093566;28;20063;-61
2021/11/07 12:43:51;;;;;;;15.05;11.38;;;;;;;17.45;66.67;97044.72;5093184;28;20059;-61
2021/11/07 12:49:15;;;;;;;16.80;12.38;;;;;;;17.45;66.37;97039.44;5073261;28;20398;-61
2021/11/07 12:52:08;;;;;;;14.80;11.18;;;;;;;17.46;66.46;97041.13;5072790;28;20024;-61
2021/11/07 12:54:40;;;;;;;14.80;11.30;;;;;;;17.49;66.43;97033.03;5072890;28;20032;-61
2021/11/07 12:57:13;;;;;;;17.75;11.05;;;;;;;17.50;66.80;97039.19;5072760;28;20111;-61
2021/11/07 12:59:43;;;;;;;13.07;11.00;;;;;;;17.45;66.52;97039.44;5083314;28;20032;-61
2021/11/07 13:02:31;;;;;;;12.32;11.02;;;;;;;17.26;67.57;97039.66;5093078;28;20040;-61
2021/11/07 13:05:33;;;;;;;16.58;11.52;;;;;;;17.19;67.53;97044.47;5092884;28;20036;-61
2021/11/07 13:08:03;;;;;;;18.95;13.63;;;;;;;17.09;67.88;97040.59;5091225;28;20054;-61
2021/11/07 13:13:39;;;;;;;19.98;12.75;;;;;;;16.99;68.46;97042.91;5072741;28;20037;-60
2021/11/07 13:19:10;;;;;;;15.77;11.60;;;;;;;17.06;68.33;97041.59;5076457;28;20031;-61
2021/11/07 13:27:13;;;;;;;17.98;11.80;;;;;;;17.00;68.08;97040.16;5085249;28;20047;-60
2021/11/07 13:32:37;;;;;;;16.20;11.77;;;;;;;16.86;68.68;97022.44;5096360;28;19912;-60
2021/11/07 13:35:17;;;;;;;20.10;12.35;;;;;;;16.91;68.33;97027.47;5096351;28;20078;-60
2021/11/07 13:37:52;;;;;;;20.25;13.10;;;;;;;16.91;68.36;97033.63;5095889;28;20514;-61
2021/11/07 13:40:24;;;;;;;18.00;12.65;;;;;;;16.79;68.68;97023.72;5096313;28;20363;-61
2021/11/07 13:42:51;;;;;;;15.13;11.73;;;;;;;16.55;69.10;97019.72;5096202;28;20036;-61